East Farms, Washington
Current Conditions -  °F | °C
As of 11:53 AM on Wednesday 28 Jan 2015 (Local Time) from KSFF Reporting Station
Haze Haze  
Wind Chill: 40°   Ceiling: 800
Heat Index: 40°   Visibility: 6mi
Dew Point: 35°   Wind: 0mph
Humidity: 83%   Direction: NA
Pressure: 30.4"   Gusts: NA
Location:  47.7153°N, 117.066°W
Report Text: KSFF 281953Z 00000KT 6SM HZ OVC008 04/02 A3040 RMK AO2 SLP309 T00440017
Loading
Personal Weather Stations






























Interactive Weather Map New forecast layout! Learn more

10-Day Weather Forecast

Advertisements
Track Severe Weather on mobile